createdAt,value
2022-11-11T00:02:15.356Z,26.88
2022-11-11T00:04:41.560Z,23.25
2022-11-11T00:07:07.848Z,24.30
2022-11-11T00:09:35.666Z,22.80
2022-11-11T00:12:02.001Z,25.02
2022-11-11T00:14:28.268Z,22.67
2022-11-11T00:17:15.247Z,26.63
2022-11-11T00:20:00.215Z,23.38
2022-11-11T00:22:45.010Z,23.23
2022-11-11T00:25:11.287Z,22.85
2022-11-11T00:27:37.583Z,22.27
2022-11-11T00:30:03.863Z,22.33
2022-11-11T00:32:31.563Z,22.92
2022-11-11T00:35:16.405Z,25.70
2022-11-11T00:37:42.702Z,22.00
2022-11-11T00:40:08.977Z,21.52
2022-11-11T00:42:37.235Z,23.38
2022-11-11T00:45:03.490Z,20.77
2022-11-11T00:47:48.564Z,23.77
2022-11-11T00:50:33.348Z,21.38
2022-11-11T00:52:59.648Z,21.70
2022-11-11T00:55:25.903Z,23.55
2022-11-11T00:57:52.097Z,22.77
2022-11-11T01:00:18.632Z,22.90
2022-11-11T01:02:45.003Z,24.60
2022-11-11T01:05:11.246Z,25.02
2022-11-11T01:07:37.524Z,22.25
2022-11-11T01:10:03.879Z,26.30
2022-11-11T01:12:30.153Z,23.42
2022-11-11T01:14:56.355Z,23.48
2022-11-11T01:17:22.667Z,26.20
2022-11-11T01:19:48.970Z,25.60
2022-11-11T01:22:18.241Z,24.45
2022-11-11T01:24:46.062Z,25.92
2022-11-11T01:27:12.387Z,24.40
2022-11-11T01:29:38.595Z,24.58
2022-11-11T01:32:05.006Z,24.98
2022-11-11T01:34:31.290Z,23.92
2022-11-11T01:36:57.612Z,22.55
2022-11-11T01:39:23.868Z,24.65
2022-11-11T01:41:50.151Z,24.15
2022-11-11T01:44:16.440Z,25.45
2022-11-11T01:46:42.665Z,26.05
2022-11-11T01:49:21.277Z,26.40
2022-11-11T01:51:47.651Z,26.00
2022-11-11T01:54:13.908Z,26.27
2022-11-11T01:56:40.139Z,26.52
2022-11-11T01:59:06.407Z,26.17
2022-11-11T02:01:32.703Z,24.95
2022-11-11T02:04:17.614Z,26.35
2022-11-11T02:06:43.899Z,24.48
2022-11-11T02:09:10.224Z,25.23
2022-11-11T02:11:55.433Z,24.33
2022-11-11T02:14:37.120Z,25.45
2022-11-11T02:17:05.125Z,22.73
2022-11-11T02:19:31.654Z,25.45
2022-11-11T02:21:57.887Z,26.08
2022-11-11T02:24:24.124Z,23.45
2022-11-11T02:26:54.208Z,22.73
2022-11-11T02:29:23.495Z,26.70
2022-11-11T02:31:53.237Z,24.67
2022-11-11T02:34:19.590Z,25.35
2022-11-11T02:36:45.973Z,26.45
2022-11-11T02:39:12.201Z,23.80
2022-11-11T02:42:00.191Z,27.48
2022-11-11T02:44:26.479Z,28.73
2022-11-11T02:46:53.125Z,26.73
2022-11-11T02:49:19.403Z,27.20
2022-11-11T02:51:47.568Z,28.58
2022-11-11T02:56:59.153Z,25.50
2022-11-11T02:59:25.558Z,24.63
2022-11-11T03:01:52.064Z,26.85
2022-11-11T03:04:18.540Z,26.70
2022-11-11T03:06:45.131Z,29.52
2022-11-11T03:09:11.609Z,24.55
2022-11-11T03:11:38.570Z,24.73
2022-11-11T03:14:05.228Z,26.50
2022-11-11T03:16:50.438Z,24.67
2022-11-11T03:19:16.794Z,28.38
2022-11-11T03:24:49.146Z,26.02
2022-11-11T03:27:15.335Z,25.65
2022-11-11T03:29:42.811Z,27.75
2022-11-11T03:32:09.105Z,25.77
2022-11-11T03:34:35.319Z,24.73
2022-11-11T03:37:20.535Z,23.55
2022-11-11T03:39:46.723Z,27.95
2022-11-11T03:42:12.930Z,26.83
2022-11-11T03:44:39.117Z,26.77
2022-11-11T03:47:05.307Z,27.13
2022-11-11T03:49:31.530Z,25.83
2022-11-11T03:51:57.720Z,24.20
2022-11-11T03:54:23.952Z,27.10
2022-11-11T03:56:50.181Z,24.42
2022-11-11T03:59:16.374Z,26.25
2022-11-11T04:02:01.379Z,26.33
2022-11-11T04:04:46.430Z,25.35
2022-11-11T04:07:33.136Z,25.30
2022-11-11T04:10:17.969Z,26.17
2022-11-11T04:13:02.792Z,24.90
2022-11-11T04:15:47.444Z,25.08
2022-11-11T04:18:13.687Z,26.38
2022-11-11T04:20:58.564Z,24.58
2022-11-11T04:23:24.963Z,26.15
2022-11-11T04:25:53.396Z,23.13
2022-11-11T04:31:04.435Z,24.13
2022-11-11T04:33:30.629Z,29.45
2022-11-11T04:35:56.821Z,41.13
2022-11-11T04:38:41.939Z,29.15
2022-11-11T04:41:09.003Z,28.10
2022-11-11T04:43:55.170Z,28.45
2022-11-11T04:46:21.365Z,28.17
2022-11-11T04:48:47.727Z,28.67
2022-11-11T04:51:13.915Z,25.77
2022-11-11T04:53:40.111Z,26.23
2022-11-11T04:56:25.097Z,25.17
2022-11-11T04:59:11.248Z,25.77
2022-11-11T05:01:56.243Z,26.58
2022-11-11T05:04:22.431Z,25.60
2022-11-11T05:07:07.292Z,28.20
2022-11-11T05:09:33.498Z,28.00
2022-11-11T05:11:59.678Z,27.95
2022-11-11T05:14:44.540Z,27.80
2022-11-11T05:17:29.324Z,30.33
2022-11-11T05:20:27.833Z,28.02
2022-11-11T05:22:54.051Z,26.98
2022-11-11T05:25:26.105Z,28.98
2022-11-11T05:27:52.667Z,36.47
2022-11-11T05:30:18.888Z,29.80
2022-11-11T05:32:45.083Z,51.47
2022-11-11T05:35:12.353Z,35.30
2022-11-11T05:37:38.557Z,34.20
2022-11-11T05:40:07.047Z,29.98
2022-11-11T05:42:33.275Z,30.02
2022-11-11T05:44:59.475Z,31.08
2022-11-11T05:47:25.661Z,29.15
2022-11-11T05:49:51.884Z,30.83
2022-11-11T05:52:18.144Z,33.50
2022-11-11T05:54:44.351Z,31.60
2022-11-11T05:57:10.580Z,31.45
2022-11-11T05:59:37.047Z,30.90
2022-11-11T06:02:03.312Z,33.53
2022-11-11T06:04:29.598Z,34.33
2022-11-11T06:06:55.850Z,43.97
2022-11-11T06:09:22.102Z,37.67
2022-11-11T06:11:50.272Z,35.38
2022-11-11T06:16:42.724Z,28.15
2022-11-11T06:19:08.921Z,31.27
2022-11-11T06:21:55.140Z,30.90
2022-11-11T06:24:26.033Z,29.75
2022-11-11T06:26:52.910Z,33.17
2022-11-11T06:29:19.111Z,39.00
2022-11-11T06:31:45.577Z,32.22
2022-11-11T06:34:11.877Z,33.20
2022-11-11T06:36:38.086Z,36.80
2022-11-11T06:39:04.284Z,36.25
2022-11-11T06:41:30.495Z,35.42
2022-11-11T06:43:56.690Z,34.25
2022-11-11T06:46:23.175Z,31.40
2022-11-11T06:48:49.380Z,36.50
2022-11-11T06:51:16.558Z,31.30
2022-11-11T06:53:42.767Z,34.47
2022-11-11T06:56:09.179Z,33.30
2022-11-11T06:58:35.431Z,34.50
2022-11-11T07:01:01.674Z,36.42
2022-11-11T07:03:27.929Z,34.95
2022-11-11T07:05:58.915Z,33.30
2022-11-11T07:08:25.976Z,34.63
2022-11-11T07:10:52.483Z,32.70
2022-11-11T07:13:18.678Z,31.33
2022-11-11T07:15:44.886Z,33.38
2022-11-11T07:18:11.087Z,32.35
2022-11-11T07:20:37.362Z,31.23
2022-11-11T07:23:03.602Z,33.00
2022-11-11T07:25:29.799Z,29.13
2022-11-11T07:27:59.109Z,30.13
2022-11-11T07:30:25.809Z,30.05
2022-11-11T07:32:52.035Z,29.90
2022-11-11T07:35:18.238Z,27.23
2022-11-11T07:37:48.050Z,27.08
2022-11-11T07:40:14.250Z,27.83
2022-11-11T07:42:40.446Z,26.48
2022-11-11T07:45:06.645Z,24.52
2022-11-11T07:47:34.495Z,25.92
2022-11-11T07:50:04.484Z,26.10
2022-11-11T07:52:33.770Z,24.58
2022-11-11T07:55:00.005Z,24.98
2022-11-11T07:57:30.161Z,25.60
2022-11-11T07:59:56.350Z,25.10
2022-11-11T08:02:22.546Z,25.48
2022-11-11T08:04:53.780Z,23.88
2022-11-11T08:07:25.326Z,25.83
2022-11-11T08:09:51.564Z,26.88
2022-11-11T08:12:36.930Z,24.52
2022-11-11T08:15:06.552Z,23.70
2022-11-11T08:17:37.037Z,24.40
2022-11-11T08:20:03.331Z,41.20
2022-11-11T08:25:20.017Z,25.08
2022-11-11T08:27:46.243Z,23.65
2022-11-11T08:30:12.605Z,29.73
2022-11-11T08:32:38.941Z,25.15
2022-11-11T08:35:09.225Z,26.25
2022-11-11T08:37:35.437Z,25.33
2022-11-11T08:40:01.642Z,27.67
2022-11-11T08:42:28.193Z,23.50
2022-11-11T08:44:54.386Z,23.73
2022-11-11T08:47:22.348Z,24.08
2022-11-11T08:49:50.872Z,27.48
2022-11-11T08:52:21.140Z,29.02
2022-11-11T08:54:47.338Z,25.30
2022-11-11T08:57:13.602Z,26.45
2022-11-11T08:59:39.879Z,24.73
2022-11-11T09:02:06.230Z,25.52
2022-11-11T09:04:52.829Z,26.17
2022-11-11T09:07:18.945Z,25.92
2022-11-11T09:09:45.236Z,24.17
2022-11-11T09:12:11.523Z,22.88
2022-11-11T09:14:37.737Z,25.70
2022-11-11T09:17:04.178Z,23.77
2022-11-11T09:19:30.453Z,25.88
2022-11-11T09:21:56.721Z,25.13
2022-11-11T09:24:22.977Z,25.17
2022-11-11T09:26:49.441Z,24.13
2022-11-11T09:29:15.734Z,25.15
2022-11-11T09:31:44.933Z,22.00
2022-11-11T09:34:12.325Z,25.98
2022-11-11T09:36:38.626Z,22.50
2022-11-11T09:39:04.884Z,23.60
2022-11-11T09:41:31.176Z,25.08
2022-11-11T09:43:57.480Z,26.45
2022-11-11T09:46:23.769Z,23.90
2022-11-11T09:48:50.051Z,25.77
2022-11-11T09:51:16.344Z,23.80
2022-11-11T09:53:42.617Z,23.42
2022-11-11T09:56:28.984Z,23.95
2022-11-11T09:58:55.188Z,22.23
2022-11-11T10:01:21.591Z,24.27
2022-11-11T10:03:47.932Z,22.42
2022-11-11T10:06:17.294Z,26.77
2022-11-11T10:08:47.360Z,23.33
2022-11-11T10:11:13.770Z,27.55
2022-11-11T10:13:40.043Z,23.08
2022-11-11T10:16:09.987Z,27.02
2022-11-11T10:18:36.242Z,25.80
2022-11-11T10:21:02.777Z,25.70
2022-11-11T10:23:29.029Z,27.88
2022-11-11T10:25:58.964Z,24.25
2022-11-11T10:28:25.445Z,27.13
2022-11-11T10:30:52.937Z,23.67
2022-11-11T10:33:19.194Z,25.63
2022-11-11T10:35:45.466Z,23.88
2022-11-11T10:38:11.734Z,26.77
2022-11-11T10:40:38.194Z,25.52
2022-11-11T10:43:04.450Z,24.17
2022-11-11T10:45:30.796Z,22.92
2022-11-11T10:47:57.116Z,25.13
2022-11-11T10:50:23.388Z,24.40
2022-11-11T10:52:49.650Z,24.80
2022-11-11T10:55:15.918Z,22.67
2022-11-11T10:57:42.204Z,20.98
2022-11-11T11:00:08.521Z,23.30
2022-11-11T11:02:34.783Z,22.50
2022-11-11T11:05:01.066Z,25.98
2022-11-11T11:07:27.323Z,25.63
2022-11-11T11:09:53.635Z,22.17
2022-11-11T11:12:19.909Z,23.90
2022-11-11T11:14:46.254Z,23.13
2022-11-11T11:17:12.517Z,23.08
2022-11-11T11:19:38.779Z,22.42
2022-11-11T11:22:05.151Z,23.60
2022-11-11T11:24:34.256Z,23.77
2022-11-11T11:27:00.523Z,21.50
2022-11-11T11:29:26.890Z,25.60
2022-11-11T11:31:53.175Z,24.05
2022-11-11T11:34:19.436Z,24.27
2022-11-11T11:36:45.693Z,23.88
2022-11-11T11:39:11.974Z,22.17
2022-11-11T11:41:38.442Z,23.15
2022-11-11T11:44:04.746Z,23.65
2022-11-11T11:46:31.006Z,24.95
2022-11-11T11:48:57.293Z,23.50
2022-11-11T11:51:23.586Z,24.50
2022-11-11T11:53:49.908Z,22.30
2022-11-11T11:56:16.250Z,21.20
2022-11-11T11:58:42.948Z,23.70
2022-11-11T12:01:09.258Z,22.38
2022-11-11T12:03:35.536Z,21.05
2022-11-11T12:06:01.804Z,22.15
2022-11-11T12:08:28.237Z,20.65
2022-11-11T12:10:54.512Z,21.42
2022-11-11T12:13:20.773Z,21.02
2022-11-11T12:15:47.035Z,21.08
2022-11-11T12:18:13.308Z,21.55
2022-11-11T12:20:39.606Z,20.25
2022-11-11T12:23:05.862Z,19.95
2022-11-11T12:25:32.454Z,20.00
2022-11-11T12:27:58.727Z,21.58
2022-11-11T12:30:31.130Z,22.63
2022-11-11T12:32:57.385Z,19.33
2022-11-11T12:35:23.653Z,20.42
2022-11-11T12:37:49.920Z,22.70
2022-11-11T12:40:16.496Z,20.42
2022-11-11T12:42:42.775Z,20.90
2022-11-11T12:45:09.044Z,24.83
2022-11-11T12:47:35.310Z,21.15
2022-11-11T12:50:01.587Z,22.95
2022-11-11T12:52:27.862Z,23.48
2022-11-11T12:54:54.169Z,22.23
2022-11-11T12:57:23.906Z,20.88
2022-11-11T12:59:50.327Z,28.50
2022-11-11T13:02:16.590Z,23.60
2022-11-11T13:04:42.895Z,20.20
2022-11-11T13:07:09.191Z,23.85
2022-11-11T13:09:35.474Z,24.80
2022-11-11T13:12:01.736Z,22.67
2022-11-11T13:14:28.017Z,25.17
2022-11-11T13:16:54.290Z,24.02
2022-11-11T13:19:20.976Z,24.92
2022-11-11T13:21:47.268Z,22.60
2022-11-11T13:24:13.567Z,22.80
2022-11-11T13:26:39.894Z,24.48
2022-11-11T13:29:07.942Z,21.85
2022-11-11T13:34:00.371Z,29.95
2022-11-11T13:36:26.729Z,22.45
2022-11-11T13:38:53.002Z,26.38
2022-11-11T13:41:19.307Z,23.88
2022-11-11T13:43:45.568Z,27.77
2022-11-11T13:46:11.831Z,24.50
2022-11-11T13:48:38.098Z,23.23
2022-11-11T13:51:04.370Z,21.63
2022-11-11T13:53:30.649Z,22.30
2022-11-11T13:55:56.923Z,22.70
2022-11-11T13:58:23.489Z,21.20
2022-11-11T14:00:49.747Z,27.02
2022-11-11T14:03:16.000Z,25.25
2022-11-11T14:05:42.264Z,23.80
2022-11-11T14:08:08.586Z,23.08
2022-11-11T14:10:34.843Z,22.67
2022-11-11T14:13:01.124Z,21.35
2022-11-11T14:15:27.378Z,22.23
2022-11-11T14:17:53.658Z,23.05
2022-11-11T14:20:19.952Z,20.42
2022-11-11T14:22:46.230Z,21.90
2022-11-11T14:25:12.503Z,23.17
2022-11-11T14:27:38.767Z,21.92
2022-11-11T14:30:05.025Z,22.88
2022-11-11T14:32:31.299Z,21.10
2022-11-11T14:34:57.590Z,24.50
2022-11-11T14:37:23.880Z,21.33
2022-11-11T14:39:50.135Z,23.13
2022-11-11T14:42:19.912Z,21.30
2022-11-11T14:44:46.267Z,23.65
2022-11-11T14:47:12.552Z,25.52
2022-11-11T14:49:38.839Z,25.15
2022-11-11T14:52:05.091Z,27.55
2022-11-11T14:54:31.361Z,21.65
2022-11-11T14:57:01.913Z,22.90
2022-11-11T14:59:29.736Z,28.20
2022-11-11T15:01:56.000Z,27.48
2022-11-11T15:04:22.272Z,25.88
2022-11-11T15:06:48.602Z,24.90
2022-11-11T15:09:16.312Z,24.40
2022-11-11T15:11:42.582Z,26.05
2022-11-11T15:14:08.875Z,31.73
2022-11-11T15:16:35.157Z,27.33
2022-11-11T15:19:01.596Z,31.70
2022-11-11T15:21:27.869Z,38.25
2022-11-11T15:23:54.114Z,32.15
2022-11-11T15:26:20.397Z,27.25
2022-11-11T15:28:46.666Z,29.83
2022-11-11T15:31:12.960Z,26.38
2022-11-11T15:33:39.218Z,25.95
2022-11-11T15:36:09.616Z,25.58
2022-11-11T15:38:37.103Z,26.58
2022-11-11T15:41:03.426Z,24.92
2022-11-11T15:43:29.720Z,24.15
2022-11-11T15:45:56.055Z,28.02
2022-11-11T15:48:22.386Z,26.13
2022-11-11T15:50:48.668Z,27.70
2022-11-11T15:53:15.961Z,30.92
2022-11-11T15:55:42.320Z,31.77
2022-11-11T15:58:08.591Z,29.15
2022-11-11T16:00:36.871Z,28.67
2022-11-11T16:03:03.133Z,26.45
2022-11-11T16:05:29.389Z,24.92
2022-11-11T16:07:58.105Z,26.08
2022-11-11T16:10:24.579Z,27.20
2022-11-11T16:12:50.842Z,26.25
2022-11-11T16:15:17.126Z,28.40
2022-11-11T16:17:43.474Z,25.52
2022-11-11T16:20:10.718Z,27.85
2022-11-11T16:22:36.979Z,32.17
2022-11-11T16:25:05.024Z,26.52
2022-11-11T16:29:57.476Z,25.63
2022-11-11T16:32:23.841Z,30.30
2022-11-11T16:34:50.298Z,29.00
2022-11-11T16:37:16.897Z,29.23
2022-11-11T16:39:43.150Z,27.38
2022-11-11T16:42:09.492Z,27.42
2022-11-11T16:44:35.935Z,27.27
2022-11-11T16:47:02.207Z,25.08
2022-11-11T16:49:28.517Z,25.50
2022-11-11T16:51:54.822Z,27.83
2022-11-11T16:54:21.083Z,26.95
2022-11-11T16:56:47.410Z,29.85
2022-11-11T16:59:13.667Z,32.08
2022-11-11T17:01:39.983Z,31.60
2022-11-11T17:04:06.343Z,28.75
2022-11-11T17:06:32.684Z,28.05
2022-11-11T17:08:59.070Z,29.95
2022-11-11T17:11:25.337Z,29.75
2022-11-11T17:13:51.671Z,26.05
2022-11-11T17:16:18.015Z,30.92
2022-11-11T17:18:44.270Z,27.58
2022-11-11T17:21:10.551Z,26.58
2022-11-11T17:23:40.380Z,29.25
2022-11-11T17:26:07.104Z,27.75
2022-11-11T17:28:34.658Z,29.20
2022-11-11T17:31:01.045Z,26.27
2022-11-11T17:33:27.806Z,25.42
2022-11-11T17:35:54.312Z,29.08
2022-11-11T17:38:20.577Z,29.85
2022-11-11T17:40:47.158Z,25.63
2022-11-11T17:43:13.467Z,28.05
2022-11-11T17:45:39.731Z,30.85
2022-11-11T17:48:06.056Z,25.92
2022-11-11T17:50:32.325Z,29.88
2022-11-11T17:53:01.846Z,27.33
2022-11-11T17:55:28.112Z,26.52
2022-11-11T17:57:54.455Z,29.38
2022-11-11T18:00:20.714Z,29.00
2022-11-11T18:02:47.238Z,26.92
2022-11-11T18:05:14.062Z,27.05
2022-11-11T18:07:44.849Z,27.95
2022-11-11T18:10:11.488Z,28.48
2022-11-11T18:12:37.753Z,28.10
2022-11-11T18:15:04.032Z,31.02
2022-11-11T18:17:30.312Z,33.38
2022-11-11T18:19:56.637Z,34.03
2022-11-11T18:22:22.935Z,30.08
2022-11-11T18:24:49.192Z,30.55
2022-11-11T18:27:15.473Z,29.25
2022-11-11T18:29:42.445Z,31.58
2022-11-11T18:32:09.721Z,32.20
2022-11-11T18:34:35.985Z,30.08
2022-11-11T18:37:02.259Z,32.58
2022-11-11T18:39:28.534Z,29.73
2022-11-11T18:41:54.791Z,31.10
2022-11-11T18:44:21.059Z,30.92
2022-11-11T18:46:47.317Z,28.80
2022-11-11T18:49:13.582Z,26.38
2022-11-11T18:51:39.854Z,27.80
2022-11-11T18:54:06.136Z,32.88
2022-11-11T18:56:32.398Z,27.92
2022-11-11T18:58:58.653Z,34.67
2022-11-11T19:01:25.228Z,32.55
2022-11-11T19:03:51.601Z,29.13
2022-11-11T19:06:22.194Z,27.05
2022-11-11T19:08:48.463Z,34.15
2022-11-11T19:11:14.742Z,32.08
2022-11-11T19:13:40.994Z,30.10
2022-11-11T19:16:07.256Z,32.35
2022-11-11T19:18:38.987Z,30.85
2022-11-11T19:21:05.246Z,30.27
2022-11-11T19:23:31.532Z,30.70
2022-11-11T19:25:57.795Z,27.75
2022-11-11T19:28:24.110Z,29.42
2022-11-11T19:30:50.436Z,26.65
2022-11-11T19:33:16.712Z,27.35
2022-11-11T19:35:42.974Z,36.42
2022-11-11T19:38:09.238Z,31.05
2022-11-11T19:40:35.509Z,29.55
2022-11-11T19:43:01.773Z,27.88
2022-11-11T19:45:28.118Z,32.25
2022-11-11T19:47:54.386Z,31.75
2022-11-11T19:50:20.730Z,32.53
2022-11-11T19:52:47.037Z,31.08
2022-11-11T19:55:13.328Z,31.58
2022-11-11T19:57:39.521Z,30.70
2022-11-11T20:00:07.653Z,29.25
2022-11-11T20:05:00.084Z,29.67
2022-11-11T20:07:26.416Z,30.40
2022-11-11T20:09:52.747Z,30.42
2022-11-11T20:12:19.026Z,30.83
2022-11-11T20:14:48.811Z,30.77
2022-11-11T20:17:15.063Z,34.22
2022-11-11T20:19:42.177Z,30.05
2022-11-11T20:22:09.187Z,36.57
2022-11-11T20:24:38.040Z,30.10
2022-11-11T20:27:04.564Z,28.08
2022-11-11T20:29:31.468Z,30.52
2022-11-11T20:31:57.744Z,28.60
2022-11-11T20:34:23.936Z,33.50
2022-11-11T20:36:50.195Z,32.42
2022-11-11T20:39:16.450Z,30.75
2022-11-11T20:41:42.719Z,28.00
2022-11-11T20:44:09.758Z,33.17
2022-11-11T20:46:36.028Z,29.20
2022-11-11T20:49:02.348Z,30.98
2022-11-11T20:51:28.552Z,29.35
2022-11-11T20:53:54.782Z,29.17
2022-11-11T20:56:24.258Z,30.90
2022-11-11T20:58:50.898Z,32.40
2022-11-11T21:01:17.318Z,30.73
2022-11-11T21:03:43.527Z,44.53
2022-11-11T21:06:09.819Z,30.17
2022-11-11T21:08:36.008Z,31.58
2022-11-11T21:11:02.220Z,30.40
2022-11-11T21:13:28.681Z,28.75
2022-11-11T21:15:55.207Z,29.00
2022-11-11T21:18:21.456Z,30.30
2022-11-11T21:20:47.680Z,28.33
2022-11-11T21:23:13.970Z,34.47
2022-11-11T21:25:40.296Z,31.25
2022-11-11T21:28:06.682Z,28.75
2022-11-11T21:30:33.019Z,33.95
2022-11-11T21:33:02.704Z,27.10
2022-11-11T21:35:31.652Z,32.38
2022-11-11T21:37:57.847Z,31.00
2022-11-11T21:40:24.126Z,32.92
2022-11-11T21:42:55.282Z,27.35
2022-11-11T21:45:24.063Z,32.40
2022-11-11T21:47:50.263Z,33.92
2022-11-11T21:50:16.453Z,33.47
2022-11-11T21:52:42.652Z,31.83
2022-11-11T21:55:09.075Z,34.95
2022-11-11T21:57:35.262Z,32.25
2022-11-11T22:00:01.456Z,30.52
2022-11-11T22:02:28.339Z,35.22
2022-11-11T22:04:54.634Z,33.75
2022-11-11T22:07:21.354Z,34.33
2022-11-11T22:09:47.631Z,34.08
2022-11-11T22:12:13.835Z,33.63
2022-11-11T22:14:40.026Z,34.40
2022-11-11T22:17:06.221Z,37.70
2022-11-11T22:19:32.408Z,33.00
2022-11-11T22:21:58.627Z,40.67
2022-11-11T22:24:24.814Z,32.75
2022-11-11T22:26:51.019Z,34.55
2022-11-11T22:29:17.211Z,35.63
2022-11-11T22:31:44.393Z,35.88
2022-11-11T22:34:10.606Z,35.27
2022-11-11T22:36:36.843Z,33.92
2022-11-11T22:39:03.109Z,33.85
2022-11-11T22:41:29.332Z,37.92
2022-11-11T22:44:00.094Z,31.67
2022-11-11T22:46:27.383Z,32.33
2022-11-11T22:48:53.639Z,35.15
2022-11-11T22:51:19.868Z,32.50
2022-11-11T22:53:46.089Z,35.38
2022-11-11T22:56:12.303Z,33.30
2022-11-11T22:58:38.497Z,35.33
2022-11-11T23:01:04.909Z,31.83
2022-11-11T23:03:31.099Z,33.08
2022-11-11T23:05:57.359Z,35.10
2022-11-11T23:08:23.806Z,32.85
2022-11-11T23:10:50.320Z,32.60
2022-11-11T23:13:16.515Z,34.00
2022-11-11T23:15:42.834Z,34.97
2022-11-11T23:18:09.024Z,34.47
2022-11-11T23:20:35.209Z,31.83
2022-11-11T23:23:01.427Z,34.30
2022-11-11T23:25:27.619Z,35.10
2022-11-11T23:27:53.855Z,36.50
2022-11-11T23:30:20.047Z,34.90
2022-11-11T23:32:46.252Z,34.20
2022-11-11T23:35:12.456Z,32.70
2022-11-11T23:37:38.656Z,32.67
2022-11-11T23:40:04.863Z,35.88
2022-11-11T23:42:31.063Z,33.67
2022-11-11T23:44:57.269Z,34.05
2022-11-11T23:47:23.458Z,32.92
2022-11-11T23:49:49.650Z,34.70
2022-11-11T23:52:15.836Z,36.35
2022-11-11T23:54:42.026Z,32.15
2022-11-11T23:57:08.238Z,34.72
2022-11-11T23:59:37.708Z,35.63
